Time;durP1;ratioP1;P1;durP2;ratioP2;P2;SDS_P1;SDS_P2;PMS_P1;PMS_P2;Temp;Humidity;BMP_temperature;BMP_pressure;BME280_temperature;BME280_humidity;BME280_pressure;Samples;Min_cycle;Max_cycle;Signal;HPM_P1;HPM_P2
2024/03/09 00:00:56;;;;;;;25.10;15.05;;;;;;;-146.25;85.92;52536.50;2071212;28;33029;-63
2024/03/09 00:01:58;;;;;;;26.52;15.23;;;;;;;-146.25;86.23;52536.50;2070742;28;34149;-64
2024/03/09 00:03:00;;;;;;;24.70;15.15;;;;;;;-146.25;86.79;52550.69;2070881;28;34624;-63
2024/03/09 00:04:04;;;;;;;26.05;15.40;;;;;;;-146.25;87.08;52564.88;2074943;28;31777;-63
2024/03/09 00:05:06;;;;;;;24.20;14.85;;;;;;;-146.25;86.95;52550.69;2079911;28;34300;-63
2024/03/09 00:06:12;;;;;;;26.98;15.00;;;;;;;-146.25;87.50;52568.94;2079731;28;29129;-63
2024/03/09 00:07:16;;;;;;;27.48;14.18;;;;;;;-146.25;87.18;52560.81;2079896;28;36222;-63
2024/03/09 00:08:18;;;;;;;23.98;14.48;;;;;;;-146.25;87.95;52566.91;2088397;28;32549;-64
2024/03/09 00:09:19;;;;;;;25.90;15.07;;;;;;;-146.25;87.54;52548.66;2087448;28;31575;-63
2024/03/09 00:10:23;;;;;;;23.95;14.18;;;;;;;-146.25;87.98;52526.34;2087350;28;34579;-63
2024/03/09 00:11:25;;;;;;;27.63;15.68;;;;;;;-146.25;88.07;52542.56;2087830;28;20046;-62
2024/03/09 00:12:28;;;;;;;25.65;15.32;;;;;;;-146.25;88.33;52546.63;2079353;28;36290;-63
2024/03/09 00:13:30;;;;;;;26.48;15.40;;;;;;;-146.25;88.16;52577.03;2087628;28;28928;-63
2024/03/09 00:14:31;;;;;;;23.05;14.63;;;;;;;-146.25;88.05;52522.28;2087690;28;37271;-64
2024/03/09 00:15:35;;;;;;;24.83;14.50;;;;;;;-146.25;88.58;52534.47;2088808;28;20034;-64
2024/03/09 00:16:39;;;;;;;24.35;15.23;;;;;;;-146.25;88.81;52528.38;2087769;28;35255;-64
2024/03/09 00:17:42;;;;;;;25.27;15.27;;;;;;;-146.25;89.25;52534.47;2087968;28;35030;-64
2024/03/09 00:18:44;;;;;;;27.63;15.93;;;;;;;-146.25;89.23;52530.41;2087463;28;33809;-64
2024/03/09 00:19:46;;;;;;;24.20;15.40;;;;;;;-146.25;89.49;52530.41;2088091;28;34264;-65
2024/03/09 00:20:48;;;;;;;23.80;14.75;;;;;;;-146.25;89.48;52546.63;2088188;28;34698;-64
2024/03/09 00:21:50;;;;;;;25.15;15.30;;;;;;;-146.25;89.97;52570.97;2087719;28;38884;-64
2024/03/09 00:22:53;;;;;;;30.45;16.13;;;;;;;-146.25;90.30;52566.91;2088373;28;20934;-64
2024/03/09 00:23:55;;;;;;;25.83;15.80;;;;;;;-146.25;90.55;52546.63;2086982;28;36766;-64
2024/03/09 00:24:56;;;;;;;28.85;16.20;;;;;;;-146.25;90.86;52556.75;2079205;28;35932;-64
2024/03/09 00:26:03;;;;;;;25.05;15.20;;;;;;;-146.25;91.72;52554.75;2087252;28;33708;-64
2024/03/09 00:27:07;;;;;;;26.67;15.30;;;;;;;-146.25;92.09;52558.78;2086903;28;37505;-64
2024/03/09 00:28:09;;;;;;;24.65;15.25;;;;;;;-146.25;91.95;52522.28;2088192;28;20045;-65
2024/03/09 00:29:12;;;;;;;26.55;15.85;;;;;;;-146.25;91.97;52554.75;2087026;28;34181;-64
2024/03/09 00:30:29;;;;;;;25.92;15.32;;;;;;;-146.25;92.22;52522.28;2087466;28;35834;-64
2024/03/09 00:31:31;;;;;;;24.00;14.45;;;;;;;-146.25;92.53;52558.78;2088441;28;20775;-64
2024/03/09 00:32:33;;;;;;;28.83;15.95;;;;;;;-146.25;92.53;52550.69;2087711;28;38897;-64
2024/03/09 00:33:38;;;;;;;27.73;16.50;;;;;;;-146.25;92.59;52532.44;2087300;28;32841;-64
2024/03/09 00:34:40;;;;;;;25.45;15.18;;;;;;;-146.25;92.98;52532.44;2078971;28;33533;-65
2024/03/09 00:35:41;;;;;;;31.40;16.25;;;;;;;-146.25;93.16;52528.38;2078618;28;35193;-63
2024/03/09 00:36:43;;;;;;;28.90;15.68;;;;;;;-146.25;93.41;52489.84;2071196;28;34002;-64
2024/03/09 00:37:45;;;;;;;25.45;15.75;;;;;;;-146.25;93.54;52548.66;2078737;28;35638;-63
2024/03/09 00:38:47;;;;;;;24.63;16.20;;;;;;;-146.25;93.79;52534.47;2079858;28;30333;-65
2024/03/09 00:39:49;;;;;;;25.88;16.15;;;;;;;-146.25;93.94;52550.69;2079246;28;34008;-63
2024/03/09 00:40:53;;;;;;;26.70;15.98;;;;;;;-146.25;94.16;52542.56;2079109;28;35693;-64
2024/03/09 00:41:55;;;;;;;26.75;16.42;;;;;;;-146.25;94.23;52530.41;2079369;28;36525;-65
2024/03/09 00:43:03;;;;;;;29.50;16.35;;;;;;;-146.25;94.49;52562.84;2079920;28;32831;-63
2024/03/09 00:44:05;;;;;;;26.02;15.82;;;;;;;-146.25;94.63;52514.19;2080424;28;24478;-64
2024/03/09 00:45:09;;;;;;;25.38;15.52;;;;;;;-146.25;95.15;52570.97;2079568;28;33237;-64
2024/03/09 00:46:11;;;;;;;25.30;15.25;;;;;;;-146.25;95.37;52542.56;2079207;28;34181;-64
2024/03/09 00:47:14;;;;;;;26.42;16.13;;;;;;;-146.25;95.72;52542.56;2079487;28;35977;-64
2024/03/09 00:48:19;;;;;;;25.50;15.57;;;;;;;-146.25;95.78;52589.22;2079524;28;34323;-63
2024/03/09 00:49:21;;;;;;;28.05;15.90;;;;;;;-146.25;96.31;52558.78;2080359;28;20978;-64
2024/03/09 00:50:24;;;;;;;26.00;16.27;;;;;;;-146.25;96.58;52534.47;2080374;28;20033;-64
2024/03/09 00:51:26;;;;;;;28.30;16.75;;;;;;;-146.25;97.09;52554.75;2080119;28;20041;-64
2024/03/09 00:52:28;;;;;;;26.90;16.00;;;;;;;-146.25;97.18;52554.75;2079689;28;31885;-64
2024/03/09 00:53:30;;;;;;;28.88;16.60;;;;;;;-146.25;97.61;52544.59;2079360;28;32954;-64
2024/03/09 00:54:35;;;;;;;27.67;16.52;;;;;;;-146.25;98.00;52558.78;2079394;28;37169;-65
2024/03/09 00:55:37;;;;;;;27.05;16.33;;;;;;;-146.25;98.45;52542.56;2079825;28;20060;-64
2024/03/09 00:56:39;;;;;;;25.77;16.23;;;;;;;-146.25;98.38;52552.72;2079412;28;33575;-64
2024/03/09 00:57:49;;;;;;;28.02;16.05;;;;;;;-146.25;99.45;52542.56;2079568;28;30706;-64
2024/03/09 00:58:56;;;;;;;26.15;16.23;;;;;;;-146.25;99.18;52544.59;2079924;28;20046;-65
2024/03/09 01:00:00;;;;;;;28.00;15.70;;;;;;;-146.25;99.75;52534.47;2078660;28;39580;-64
2024/03/09 01:01:04;;;;;;;27.70;16.65;;;;;;;-146.25;99.85;52552.72;2079914;28;32633;-64
2024/03/09 01:02:06;;;;;;;28.70;17.15;;;;;;;-146.25;100.00;52570.97;2079193;28;36109;-64
2024/03/09 01:03:08;;;;;;;23.33;14.27;;;;;;;-146.25;100.00;52564.88;2079844;28;32803;-64
2024/03/09 01:04:10;;;;;;;28.88;16.63;;;;;;;-146.25;100.00;52568.94;2078964;28;32476;-65
2024/03/09 01:05:12;;;;;;;29.75;17.35;;;;;;;-146.25;100.00;52546.63;2079954;28;28837;-64
2024/03/09 01:06:15;;;;;;;27.00;16.50;;;;;;;-146.25;100.00;52536.50;2079441;28;36392;-65
2024/03/09 01:07:19;;;;;;;29.20;17.23;;;;;;;-146.25;100.00;52562.84;2079235;28;34208;-66
2024/03/09 01:08:21;;;;;;;28.15;16.58;;;;;;;-146.25;100.00;52558.78;2080169;28;32876;-65
2024/03/09 01:09:25;;;;;;;26.08;16.20;;;;;;;-146.25;100.00;52530.41;2079622;28;33945;-64
2024/03/09 01:10:27;;;;;;;26.35;16.48;;;;;;;-146.25;100.00;52512.16;2079672;28;20073;-64
2024/03/09 01:11:30;;;;;;;27.60;17.30;;;;;;;-146.25;100.00;52524.31;2079976;28;34316;-64
2024/03/09 01:12:37;;;;;;;27.65;17.13;;;;;;;-146.25;100.00;52560.81;2079140;28;36405;-64
2024/03/09 01:13:39;;;;;;;27.48;16.20;;;;;;;-146.25;100.00;52560.81;2079131;28;33194;-64
2024/03/09 01:14:41;;;;;;;26.50;16.40;;;;;;;-146.25;100.00;52502.03;2078063;28;36646;-64
2024/03/09 01:15:45;;;;;;;29.98;17.67;;;;;;;-146.25;100.00;52538.53;2080000;28;20933;-64
2024/03/09 01:16:46;;;;;;;29.67;18.27;;;;;;;-146.25;100.00;52544.59;2079240;28;30887;-63
2024/03/09 01:17:48;;;;;;;29.00;17.17;;;;;;;-146.25;100.00;52570.97;2079635;28;36445;-63
2024/03/09 01:18:50;;;;;;;31.65;17.70;;;;;;;-146.25;100.00;52575.00;2079137;28;35408;-64
2024/03/09 01:19:52;;;;;;;27.27;17.33;;;;;;;-146.25;100.00;52542.56;2079526;28;38094;-64
2024/03/09 01:20:54;;;;;;;28.70;16.92;;;;;;;-146.25;100.00;52500.00;2087036;28;20052;-65
2024/03/09 01:22:04;;;;;;;28.23;17.63;;;;;;;-146.25;100.00;52554.75;2087442;28;32443;-64
2024/03/09 01:23:06;;;;;;;30.92;17.50;;;;;;;-146.25;100.00;52562.84;2079390;28;37209;-64
2024/03/09 01:24:08;;;;;;;31.17;18.10;;;;;;;-146.25;100.00;52526.34;2078955;28;34805;-63
2024/03/09 01:25:11;;;;;;;30.90;17.75;;;;;;;-146.25;100.00;52546.63;2078158;28;36000;-65
2024/03/09 01:26:13;;;;;;;34.08;17.63;;;;;;;-146.25;100.00;52514.19;2079898;28;20038;-65
2024/03/09 01:27:18;;;;;;;30.83;18.55;;;;;;;-146.25;100.00;52566.91;2079014;28;37942;-63
2024/03/09 01:28:20;;;;;;;28.27;17.20;;;;;;;-146.25;100.00;52504.03;2080479;28;20056;-64
2024/03/09 01:29:23;;;;;;;30.80;18.42;;;;;;;-146.25;100.00;52544.59;2079238;28;35602;-64
2024/03/09 01:30:25;;;;;;;29.75;17.25;;;;;;;-146.25;100.00;52542.56;2079314;28;32136;-65
2024/03/09 01:31:31;;;;;;;29.13;17.58;;;;;;;-146.25;100.00;52540.53;2078637;28;33784;-63
2024/03/09 01:32:33;;;;;;;30.77;18.40;;;;;;;-146.25;100.00;52534.47;2079616;28;35663;-64
2024/03/09 01:33:35;;;;;;;28.55;16.33;;;;;;;-146.25;100.00;52544.59;2086644;28;27989;-64
2024/03/09 01:34:37;;;;;;;30.85;17.52;;;;;;;-146.25;100.00;52544.59;2079526;28;33539;-64
2024/03/09 01:35:38;;;;;;;30.95;18.30;;;;;;;-146.25;100.00;52546.63;2079823;28;20035;-64
2024/03/09 01:36:43;;;;;;;28.38;17.63;;;;;;;-146.25;100.00;52568.94;2079312;28;38670;-64
2024/03/09 01:37:45;;;;;;;30.00;17.88;;;;;;;-146.25;100.00;52566.91;2087392;28;35653;-64
2024/03/09 01:38:49;;;;;;;32.58;17.88;;;;;;;-146.25;100.00;52532.44;2087507;28;34540;-63
2024/03/09 01:39:51;;;;;;;28.70;18.50;;;;;;;-146.25;100.00;52550.69;2086291;28;37334;-65
2024/03/09 01:40:53;;;;;;;33.03;17.95;;;;;;;-146.25;100.00;52564.88;2087241;28;20071;-63
2024/03/09 01:41:55;;;;;;;30.23;17.58;;;;;;;-146.25;100.00;52573.00;2078753;28;36896;-64
2024/03/09 01:42:57;;;;;;;29.05;17.95;;;;;;;-146.25;100.00;52530.41;2087017;28;36760;-65
2024/03/09 01:44:00;;;;;;;28.77;17.52;;;;;;;-146.25;100.00;52568.94;2086317;28;35607;-65
2024/03/09 01:45:04;;;;;;;29.20;17.63;;;;;;;-146.25;100.00;52566.91;2086919;28;35112;-64
2024/03/09 01:46:10;;;;;;;29.48;18.02;;;;;;;-146.25;100.00;52552.72;2086666;28;20169;-64
2024/03/09 01:47:12;;;;;;;30.23;18.27;;;;;;;-146.25;100.00;52556.75;2080680;28;38473;-64
2024/03/09 01:48:20;;;;;;;27.83;17.15;;;;;;;-146.25;100.00;52530.41;2087947;28;35496;-64
2024/03/09 01:49:22;;;;;;;27.63;16.92;;;;;;;-146.25;100.00;52579.06;2087621;28;35002;-64
2024/03/09 01:50:24;;;;;;;30.65;18.65;;;;;;;-146.25;100.00;52530.41;2080364;28;37751;-65
2024/03/09 01:51:26;;;;;;;30.63;18.50;;;;;;;-146.25;100.00;52546.63;2089231;28;21143;-64
2024/03/09 01:52:31;;;;;;;33.00;18.85;;;;;;;-146.25;100.00;52554.75;2087858;28;35568;-64
2024/03/09 01:53:40;;;;;;;27.27;17.60;;;;;;;-146.25;100.00;52534.47;2088490;28;35810;-65
2024/03/09 01:54:44;;;;;;;32.40;18.23;;;;;;;-146.25;100.00;52583.13;2088251;28;35984;-64
2024/03/09 01:55:48;;;;;;;30.90;18.00;;;;;;;-146.25;100.00;52558.78;2087090;28;34749;-64
2024/03/09 01:56:57;;;;;;;33.67;18.63;;;;;;;-146.25;100.00;52540.53;2080594;28;20036;-64
2024/03/09 01:57:59;;;;;;;31.30;19.10;;;;;;;-146.25;100.00;52556.75;2088237;28;34930;-64
2024/03/09 01:59:01;;;;;;;32.05;19.88;;;;;;;-146.25;100.00;52526.34;2087657;28;34100;-64
2024/03/09 02:00:08;;;;;;;31.70;18.27;;;;;;;-146.25;100.00;52518.25;2080726;28;31607;-64
2024/03/09 02:01:43;;;;;;;30.25;17.48;;;;;;;-146.25;100.00;52550.69;2080690;28;33580;-64
2024/03/09 02:02:38;;;;;;;32.60;18.83;;;;;;;-146.25;100.00;52544.59;2078565;28;33751;-64
2024/03/09 02:03:40;;;;;;;33.10;19.45;;;;;;;-146.25;100.00;52568.94;2080602;28;35335;-64
2024/03/09 02:04:44;;;;;;;32.92;19.30;;;;;;;-146.25;100.00;52550.69;2081049;28;20861;-63
2024/03/09 02:05:48;;;;;;;33.03;18.23;;;;;;;-146.25;100.00;52556.75;2080409;28;33474;-64
2024/03/09 02:06:51;;;;;;;31.38;18.88;;;;;;;-146.25;100.00;52528.38;2080055;28;36833;-64
2024/03/09 02:07:53;;;;;;;35.05;20.23;;;;;;;-146.25;100.00;52548.66;2080651;28;34247;-64
2024/03/09 02:08:58;;;;;;;29.80;18.98;;;;;;;-146.25;100.00;52546.63;2079867;28;37833;-64
2024/03/09 02:09:59;;;;;;;33.85;19.23;;;;;;;-146.25;100.00;52560.81;2080649;28;34197;-64
2024/03/09 02:11:01;;;;;;;31.95;19.13;;;;;;;-146.25;100.00;52534.47;2079419;28;33812;-64
2024/03/09 02:12:06;;;;;;;29.08;18.92;;;;;;;-146.25;100.00;52534.47;2080162;28;36730;-64
2024/03/09 02:13:08;;;;;;;33.65;19.13;;;;;;;-146.25;100.00;52570.97;2071613;28;29056;-64
2024/03/09 02:14:11;;;;;;;32.92;20.17;;;;;;;-146.25;100.00;52552.72;2072839;28;35214;-64
2024/03/09 02:15:18;;;;;;;31.67;18.88;;;;;;;-146.25;100.00;52504.03;2079510;28;35872;-64
2024/03/09 02:16:19;;;;;;;34.60;19.77;;;;;;;-146.25;100.00;52585.16;2080574;28;35471;-64
2024/03/09 02:17:22;;;;;;;30.98;18.73;;;;;;;-146.25;100.00;52558.78;2079561;28;34846;-64
2024/03/09 02:18:24;;;;;;;34.88;19.90;;;;;;;-146.25;100.00;52562.84;2080532;28;20108;-64
2024/03/09 02:19:26;;;;;;;34.35;19.38;;;;;;;-146.25;100.00;52550.69;2080257;28;33316;-64
2024/03/09 02:20:31;;;;;;;32.28;18.83;;;;;;;-146.25;100.00;52540.53;2080786;28;33149;-64
2024/03/09 02:21:34;;;;;;;32.75;19.45;;;;;;;-146.25;100.00;52544.59;2080842;28;21012;-63
2024/03/09 02:22:40;;;;;;;34.92;19.70;;;;;;;-146.25;100.00;52532.44;2079611;28;36382;-64
2024/03/09 02:23:47;;;;;;;32.83;20.05;;;;;;;-146.25;100.00;52536.50;2080316;28;20435;-63
2024/03/09 02:24:55;;;;;;;33.20;19.90;;;;;;;-146.25;100.00;52566.91;2080200;28;28152;-65
2024/03/09 02:26:01;;;;;;;33.92;18.75;;;;;;;-146.25;100.00;52546.63;2071757;28;28733;-65
2024/03/09 02:27:06;;;;;;;31.33;19.58;;;;;;;-146.25;100.00;52534.47;2073129;28;27150;-65
2024/03/09 02:28:07;;;;;;;37.25;19.42;;;;;;;-146.25;100.00;52554.75;2080210;28;38233;-66
2024/03/09 02:29:13;;;;;;;33.80;20.05;;;;;;;-146.25;100.00;52524.31;2080272;28;35732;-63
2024/03/09 02:30:15;;;;;;;31.67;19.35;;;;;;;-146.25;100.00;52601.38;2079612;28;33813;-63
2024/03/09 02:31:17;;;;;;;37.97;20.30;;;;;;;-146.25;100.00;52534.47;2081432;28;21001;-64
2024/03/09 02:32:21;;;;;;;36.22;21.13;;;;;;;-146.25;100.00;52542.56;2080381;28;34937;-65
2024/03/09 02:33:25;;;;;;;35.63;20.73;;;;;;;-146.25;100.00;52540.53;2080332;28;34162;-65
2024/03/09 02:34:27;;;;;;;37.70;21.52;;;;;;;-146.25;100.00;52566.91;2080271;28;34659;-65
2024/03/09 02:35:28;;;;;;;34.22;19.77;;;;;;;-146.25;100.00;52552.72;2080303;28;36319;-65
2024/03/09 02:36:32;;;;;;;34.70;20.92;;;;;;;-146.25;100.00;52536.50;2080710;28;32379;-65
2024/03/09 02:37:34;;;;;;;35.83;20.67;;;;;;;-146.25;100.00;52540.53;2079446;28;37760;-66
2024/03/09 02:38:36;;;;;;;36.92;20.80;;;;;;;-146.25;100.00;52540.53;2079498;28;32584;-65
2024/03/09 02:39:38;;;;;;;31.85;20.48;;;;;;;-146.25;100.00;52536.50;2080251;28;33976;-66
2024/03/09 02:40:40;;;;;;;34.90;20.58;;;;;;;-146.25;100.00;52550.69;2080391;28;37221;-66
2024/03/09 02:41:43;;;;;;;37.10;21.58;;;;;;;-146.25;100.00;52564.88;2080582;28;20040;-65
2024/03/09 02:43:06;;;;;;;36.30;21.25;;;;;;;-146.25;100.00;52526.34;2080306;28;20046;-64
2024/03/09 02:44:11;;;;;;;33.47;19.63;;;;;;;-146.25;100.00;52536.50;2080032;28;33194;-63
2024/03/09 02:45:13;;;;;;;34.92;19.67;;;;;;;-146.25;100.00;52558.78;2079872;28;35453;-63
2024/03/09 02:46:15;;;;;;;35.88;20.95;;;;;;;-146.25;100.00;52542.56;2079616;28;35056;-65
2024/03/09 02:47:17;;;;;;;34.50;21.63;;;;;;;-146.25;100.00;52512.16;2080547;28;35520;-63
2024/03/09 02:48:19;;;;;;;36.28;20.85;;;;;;;-146.25;100.00;52558.78;2080059;28;38125;-64
2024/03/09 02:49:20;;;;;;;34.88;20.95;;;;;;;-146.25;100.00;52544.59;2080689;28;32101;-64
2024/03/09 02:50:24;;;;;;;36.53;21.60;;;;;;;-146.25;100.00;52579.06;2080115;28;37664;-64
2024/03/09 02:51:26;;;;;;;33.03;20.38;;;;;;;-146.25;100.00;52577.03;2080489;28;34850;-64
2024/03/09 02:52:30;;;;;;;36.47;20.80;;;;;;;-146.25;100.00;52554.75;2080284;28;32742;-64
2024/03/09 02:53:35;;;;;;;36.60;21.27;;;;;;;-146.25;100.00;52518.25;2081110;28;20034;-63
2024/03/09 02:54:37;;;;;;;37.15;21.50;;;;;;;-146.25;100.00;52524.31;2079903;28;36443;-63
2024/03/09 02:55:39;;;;;;;35.50;20.95;;;;;;;-146.25;100.00;52558.78;2080566;28;35027;-64
2024/03/09 02:56:43;;;;;;;34.40;21.15;;;;;;;-146.25;100.00;52542.56;2079284;28;35702;-63
2024/03/09 02:57:46;;;;;;;32.45;20.27;;;;;;;-146.25;100.00;52556.75;2080097;28;32693;-63
2024/03/09 02:58:48;;;;;;;35.95;22.42;;;;;;;-146.25;100.00;52581.09;2080230;28;20230;-64
2024/03/09 02:59:50;;;;;;;35.40;20.67;;;;;;;-146.25;100.00;52558.78;2080471;28;35557;-64
2024/03/09 03:00:52;;;;;;;37.97;21.95;;;;;;;-146.25;100.00;52573.00;2079468;28;33209;-63
2024/03/09 03:01:54;;;;;;;41.03;22.73;;;;;;;-146.25;100.00;52514.19;2081049;28;21005;-64
2024/03/09 03:04:17;;;;;;;39.88;21.02;;;;;;;-146.25;100.00;52542.56;2080816;28;20046;-63
2024/03/09 03:05:23;;;;;;;38.55;22.00;;;;;;;-146.25;100.00;52516.22;2079967;28;36436;-63
2024/03/09 03:06:31;;;;;;;36.70;21.88;;;;;;;-146.25;100.00;52554.75;2080443;28;35239;-64
2024/03/09 03:07:33;;;;;;;36.65;21.63;;;;;;;-146.25;100.00;52548.66;2080100;28;36909;-63
2024/03/09 03:08:35;;;;;;;38.65;21.95;;;;;;;-146.25;100.00;52587.19;2080288;28;37972;-64
2024/03/09 03:09:44;;;;;;;36.00;21.40;;;;;;;-146.25;100.00;52575.00;2080427;28;20042;-64
2024/03/09 03:10:46;;;;;;;38.08;21.25;;;;;;;-146.25;100.00;52538.53;2088153;28;33840;-63
2024/03/09 03:11:49;;;;;;;39.78;22.40;;;;;;;-146.25;100.00;52526.34;2087328;28;34284;-62
2024/03/09 03:12:51;;;;;;;41.50;22.25;;;;;;;-146.25;100.00;52526.34;2087555;28;33800;-64
2024/03/09 03:13:54;;;;;;;39.83;22.08;;;;;;;-146.25;100.00;52522.28;2080599;28;20118;-63
2024/03/09 03:14:57;;;;;;;37.78;22.17;;;;;;;-146.25;100.00;52546.63;2079067;28;32972;-63
2024/03/09 03:15:59;;;;;;;33.95;20.15;;;;;;;-146.25;100.00;52554.75;2079421;28;35028;-63
2024/03/09 03:17:01;;;;;;;38.50;21.40;;;;;;;-146.25;100.00;52560.81;2087518;28;30684;-63
2024/03/09 03:18:08;;;;;;;37.90;22.92;;;;;;;-146.25;100.00;52542.56;2087533;28;36090;-63
2024/03/09 03:19:10;;;;;;;37.97;22.25;;;;;;;-146.25;100.00;52520.28;2080322;28;35464;-64
2024/03/09 03:20:17;;;;;;;40.15;22.58;;;;;;;-146.25;100.00;52526.34;2080386;28;20077;-64
2024/03/09 03:21:19;;;;;;;39.42;21.58;;;;;;;-146.25;100.00;52566.91;2080157;28;37993;-63
2024/03/09 03:22:21;;;;;;;39.72;23.08;;;;;;;-146.25;100.00;52560.81;2080330;28;36929;-63
2024/03/09 03:23:23;;;;;;;43.17;23.20;;;;;;;-146.25;100.00;52560.81;2080138;28;33720;-63
2024/03/09 03:24:26;;;;;;;39.30;23.75;;;;;;;-146.25;100.00;52526.34;2080224;28;35100;-63
2024/03/09 03:25:28;;;;;;;40.13;23.23;;;;;;;-146.25;100.00;52546.63;2080167;28;32062;-62
2024/03/09 03:26:32;;;;;;;47.65;23.58;;;;;;;-146.25;100.00;52532.44;2079551;28;37038;-63
2024/03/09 03:27:34;;;;;;;39.08;22.30;;;;;;;-146.25;100.00;52585.16;2079948;28;36386;-63
2024/03/09 03:28:36;;;;;;;38.05;22.65;;;;;;;-146.25;100.00;52548.66;2080135;28;36079;-63
2024/03/09 03:29:41;;;;;;;42.67;22.50;;;;;;;-146.25;100.00;52556.75;2080687;28;20899;-63
2024/03/09 03:30:43;;;;;;;41.63;23.13;;;;;;;-146.25;100.00;52570.97;2087611;28;36472;-64
2024/03/09 03:31:45;;;;;;;38.42;22.58;;;;;;;-146.25;100.00;52554.75;2079611;28;25680;-64
2024/03/09 03:32:50;;;;;;;39.03;22.35;;;;;;;-146.25;100.00;52540.53;2079223;28;30724;-63
2024/03/09 03:33:52;;;;;;;39.53;21.60;;;;;;;-146.25;100.00;52526.34;2080008;28;28562;-63
2024/03/09 03:34:54;;;;;;;40.10;23.88;;;;;;;-146.25;100.00;52528.38;2079858;28;37073;-63
2024/03/09 03:36:01;;;;;;;38.42;23.55;;;;;;;-146.25;100.00;52546.63;2079652;28;20030;-65
2024/03/09 03:37:03;;;;;;;39.17;23.73;;;;;;;-146.25;100.00;52544.59;2079060;28;34152;-63
2024/03/09 03:38:06;;;;;;;40.55;23.60;;;;;;;-146.25;100.00;52558.78;2078975;28;34417;-65
2024/03/09 03:39:12;;;;;;;40.53;23.10;;;;;;;-146.25;100.00;52530.41;2079260;28;32612;-64
2024/03/09 03:40:15;;;;;;;39.65;23.55;;;;;;;-146.25;100.00;52595.28;2079889;28;39285;-63
2024/03/09 03:41:22;;;;;;;41.15;23.52;;;;;;;-146.25;100.00;52536.50;2080095;28;31703;-63
2024/03/09 03:42:24;;;;;;;37.72;22.67;;;;;;;-146.25;100.00;52530.41;2079409;28;33972;-65
2024/03/09 03:43:26;;;;;;;42.58;24.35;;;;;;;-146.25;100.00;52554.75;2079336;28;34913;-63
2024/03/09 03:44:30;;;;;;;43.25;24.20;;;;;;;-146.25;100.00;52548.66;2080098;28;20935;-64
2024/03/09 03:45:31;;;;;;;40.92;23.92;;;;;;;-146.25;100.00;52546.63;2079430;28;32550;-65
2024/03/09 03:46:33;;;;;;;41.88;24.23;;;;;;;-146.25;100.00;52579.06;2079883;28;32905;-64
2024/03/09 03:47:46;;;;;;;40.53;24.10;;;;;;;-146.25;100.00;52550.69;2079838;28;33692;-64
2024/03/09 03:48:49;;;;;;;41.03;23.13;;;;;;;-146.25;100.00;52556.75;2080761;28;20092;-65
2024/03/09 03:49:51;;;;;;;41.42;24.50;;;;;;;-146.25;100.00;52558.78;2080036;28;36651;-63
2024/03/09 03:50:56;;;;;;;42.42;23.23;;;;;;;-146.25;100.00;52530.41;2079759;28;34218;-63
2024/03/09 03:51:58;;;;;;;41.35;24.05;;;;;;;-146.25;100.00;52500.00;2072006;28;32772;-64
2024/03/09 03:53:04;;;;;;;41.15;23.42;;;;;;;-146.25;100.00;52564.88;2078777;28;37332;-64
2024/03/09 03:54:06;;;;;;;42.70;24.13;;;;;;;-146.25;100.00;52566.91;2080125;28;28628;-63
2024/03/09 03:55:11;;;;;;;38.53;23.60;;;;;;;-146.25;100.00;52556.75;2080196;28;20034;-62
2024/03/09 03:56:13;;;;;;;45.00;23.88;;;;;;;-146.25;100.00;52560.81;2079798;28;36204;-63
2024/03/09 03:57:16;;;;;;;39.83;24.13;;;;;;;-146.25;100.00;52562.84;2079925;28;23590;-63
2024/03/09 03:58:18;;;;;;;41.08;23.35;;;;;;;-146.25;100.00;52544.59;2080060;28;36300;-63
2024/03/09 03:59:20;;;;;;;42.05;23.40;;;;;;;-146.25;100.00;52514.19;2079486;28;34898;-64
2024/03/09 04:00:23;;;;;;;45.10;24.95;;;;;;;-146.25;100.00;52554.75;2080072;28;31983;-64
2024/03/09 04:01:26;;;;;;;42.70;24.75;;;;;;;-146.25;100.00;52593.25;2079432;28;35490;-64
2024/03/09 04:02:29;;;;;;;44.80;23.98;;;;;;;-146.25;100.00;52534.47;2079975;28;32529;-63
2024/03/09 04:03:33;;;;;;;42.40;24.48;;;;;;;-146.25;100.00;52562.84;2079082;28;37869;-64
2024/03/09 04:04:36;;;;;;;40.95;24.02;;;;;;;-146.25;100.00;52526.34;2080606;28;20041;-63
2024/03/09 04:05:38;;;;;;;45.13;23.58;;;;;;;-146.25;100.00;52546.63;2079534;28;35496;-64
2024/03/09 04:06:44;;;;;;;44.50;24.80;;;;;;;-146.25;100.00;52554.75;2080287;28;20861;-64
2024/03/09 04:07:48;;;;;;;44.63;24.67;;;;;;;-146.25;100.00;52520.28;2079489;28;34580;-64
2024/03/09 04:08:49;;;;;;;45.13;24.42;;;;;;;-146.25;100.00;52522.28;2079424;28;33763;-64
2024/03/09 04:09:51;;;;;;;44.17;25.13;;;;;;;-146.25;100.00;52550.69;2077770;28;34792;-64
2024/03/09 04:10:54;;;;;;;39.63;23.05;;;;;;;-146.25;100.00;52546.63;2079611;28;31649;-64
2024/03/09 04:11:56;;;;;;;39.58;23.20;;;;;;;-146.25;100.00;52556.75;2079418;28;33628;-63
2024/03/09 04:12:59;;;;;;;43.65;24.05;;;;;;;-146.25;100.00;52566.91;2080074;28;20160;-63
2024/03/09 04:14:01;;;;;;;42.25;22.95;;;;;;;-146.25;100.00;52538.53;2078909;28;35358;-64
2024/03/09 04:15:04;;;;;;;40.83;23.15;;;;;;;-146.25;100.00;52536.50;2079874;28;36197;-64
2024/03/09 04:16:07;;;;;;;41.55;24.95;;;;;;;-146.25;100.00;52548.66;2079628;28;29703;-64
2024/03/09 04:17:11;;;;;;;41.78;25.05;;;;;;;-146.25;100.00;52562.84;2079974;28;25335;-64
2024/03/09 04:18:13;;;;;;;42.70;24.35;;;;;;;-146.25;100.00;52536.50;2080168;28;20041;-64
2024/03/09 04:19:16;;;;;;;43.33;24.95;;;;;;;-146.25;100.00;52548.66;2080097;28;20965;-64
2024/03/09 04:20:21;;;;;;;43.00;25.00;;;;;;;-146.25;100.00;52526.34;2079694;28;33471;-64
2024/03/09 04:21:23;;;;;;;45.30;24.70;;;;;;;-146.25;100.00;52546.63;2079562;28;32716;-63
2024/03/09 04:22:25;;;;;;;46.42;24.65;;;;;;;-146.25;100.00;52560.81;2070807;28;38279;-63
2024/03/09 04:23:27;;;;;;;43.00;25.15;;;;;;;-146.25;100.00;52558.78;2079150;28;33540;-64
2024/03/09 04:24:29;;;;;;;45.45;26.35;;;;;;;-146.25;100.00;52556.75;2079633;28;28482;-63
2024/03/09 04:25:35;;;;;;;44.35;25.58;;;;;;;-146.25;100.00;52554.75;2079607;28;34852;-63
2024/03/09 04:26:40;;;;;;;43.47;24.65;;;;;;;-146.25;100.00;52506.06;2079415;28;36092;-63
2024/03/09 04:27:43;;;;;;;44.00;24.92;;;;;;;-146.25;100.00;52566.91;2079743;28;36778;-64
2024/03/09 04:28:45;;;;;;;42.10;25.50;;;;;;;-146.25;100.00;52548.66;2079480;28;31237;-64
2024/03/09 04:29:48;;;;;;;41.38;24.17;;;;;;;-146.25;100.00;52552.72;2079894;28;31311;-67
2024/03/09 04:30:50;;;;;;;42.45;24.08;;;;;;;-146.25;100.00;52554.75;2079051;28;33955;-63
2024/03/09 04:31:52;;;;;;;42.10;24.92;;;;;;;-146.25;100.00;52536.50;2079141;28;34976;-64
2024/03/09 04:32:57;;;;;;;41.03;25.17;;;;;;;-146.25;100.00;52534.47;2078751;28;32837;-64
2024/03/09 04:34:02;;;;;;;43.33;24.33;;;;;;;-146.25;100.00;52573.00;2079761;28;31147;-64
2024/03/09 04:35:08;;;;;;;43.80;24.88;;;;;;;-146.25;100.00;52550.69;2079460;28;37127;-65
2024/03/09 04:36:11;;;;;;;41.80;25.83;;;;;;;-146.25;100.00;52528.38;2079501;28;20160;-63
2024/03/09 04:37:16;;;;;;;48.38;26.08;;;;;;;-146.25;100.00;52542.56;2078966;28;37321;-63
2024/03/09 04:38:23;;;;;;;44.35;25.65;;;;;;;-146.25;100.00;52510.13;2080371;28;20103;-64
2024/03/09 04:39:24;;;;;;;41.85;24.15;;;;;;;-146.25;100.00;52575.00;2079528;28;35397;-64
2024/03/09 04:40:27;;;;;;;45.20;25.40;;;;;;;-146.25;100.00;52579.06;2080394;28;20038;-64
2024/03/09 04:41:28;;;;;;;44.08;24.50;;;;;;;-146.25;100.00;52554.75;2079083;28;36965;-63
2024/03/09 04:42:32;;;;;;;47.95;26.05;;;;;;;-146.25;100.00;52516.22;2079565;28;33262;-63
2024/03/09 04:43:38;;;;;;;43.35;25.33;;;;;;;-146.25;100.00;52536.50;2080124;28;20111;-64